Time;durP1;ratioP1;P1;durP2;ratioP2;P2;SDS_P1;SDS_P2;PMS_P1;PMS_P2;Temp;Humidity;BMP_temperature;BMP_pressure;BME280_temperature;BME280_humidity;BME280_pressure;Samples;Min_cycle;Max_cycle;Signal;HPM_P1;HPM_P2
2022/01/15 00:01:35;;;;;;;36.17;23.27;;;;;;;;;;5075640;28;20951;-64
2022/01/15 00:04:01;;;;;;;38.70;23.70;;;;;;;;;;5075118;28;20204;-63
2022/01/15 00:06:26;;;;;;;39.03;23.70;;;;;;;;;;5075074;28;20601;-63
2022/01/15 00:08:52;;;;;;;38.03;24.17;;;;;;;;;;5075456;28;20202;-64
2022/01/15 00:11:18;;;;;;;39.40;24.57;;;;;;;;;;5074928;28;20928;-64
2022/01/15 00:13:52;;;;;;;44.37;25.67;;;;;;;;;;5075537;28;20291;-63
2022/01/15 00:19:07;;;;;;;41.57;24.73;;;;;;;;;;5075215;28;20572;-64
2022/01/15 00:21:33;;;;;;;41.27;24.80;;;;;;;;;;5075257;28;20948;-63
2022/01/15 00:23:59;;;;;;;43.90;24.93;;;;;;;;;;5075120;28;20448;-63
2022/01/15 00:26:25;;;;;;;43.73;24.80;;;;;;;;;;5074761;28;20230;-62
2022/01/15 00:28:52;;;;;;;38.43;24.77;;;;;;;;;;5074969;28;20448;-63
2022/01/15 00:31:18;;;;;;;40.87;24.07;;;;;;;;;;5074973;28;20430;-63
2022/01/15 00:33:44;;;;;;;37.67;23.97;;;;;;;;;;5074890;28;20452;-63
2022/01/15 00:36:11;;;;;;;41.57;24.80;;;;;;;;;;5074772;28;20192;-63
2022/01/15 00:38:37;;;;;;;41.07;24.70;;;;;;;;;;5074438;28;20676;-64
2022/01/15 00:41:03;;;;;;;39.10;24.07;;;;;;;;;;5075046;28;20441;-62
2022/01/15 00:43:29;;;;;;;40.07;24.20;;;;;;;;;;5074707;28;20724;-63
2022/01/15 00:45:58;;;;;;;39.93;23.20;;;;;;;;;;5074746;28;20430;-63
2022/01/15 00:48:24;;;;;;;37.40;23.60;;;;;;;;;;5074507;28;20288;-63
2022/01/15 00:50:50;;;;;;;37.83;23.67;;;;;;;;;;5074791;28;20495;-64
2022/01/15 00:53:17;;;;;;;38.47;24.07;;;;;;;;;;5074494;28;20219;-64
2022/01/15 00:55:43;;;;;;;34.80;21.97;;;;;;;;;;5069287;28;20438;-62
2022/01/15 00:58:09;;;;;;;42.07;24.87;;;;;;;;;;5073266;28;20433;-62
2022/01/15 01:00:36;;;;;;;42.70;24.43;;;;;;;;;;5072542;28;20242;-65
2022/01/15 01:03:02;;;;;;;46.93;25.97;;;;;;;;;;5074756;28;20517;-64
2022/01/15 01:05:28;;;;;;;50.10;26.80;;;;;;;;;;5074424;28;20433;-66
2022/01/15 01:07:54;;;;;;;45.57;26.27;;;;;;;;;;5073826;28;20477;-65
2022/01/15 01:10:49;;;;;;;44.10;25.57;;;;;;;;;;5072525;28;20817;-65
2022/01/15 01:13:39;;;;;;;41.97;24.00;;;;;;;;;;5074124;28;20210;-66
2022/01/15 01:24:02;;;;;;;42.00;23.37;;;;;;;;;;5074326;28;20433;-70
2022/01/15 01:26:42;;;;;;;47.70;23.37;;;;;;;;;;5073952;28;20188;-70
2022/01/15 01:29:30;;;;;;;41.70;20.50;;;;;;;;;;5074031;28;20208;-69
2022/01/15 01:34:28;;;;;;;39.10;22.07;;;;;;;;;;5073908;28;20422;-70
2022/01/15 01:44:40;;;;;;;40.73;21.47;;;;;;;;;;5073751;28;20682;-71
2022/01/15 01:47:16;;;;;;;39.03;21.37;;;;;;;;;;5073625;28;20534;-70
2022/01/15 01:49:42;;;;;;;38.27;21.00;;;;;;;;;;5073769;28;20491;-70
2022/01/15 01:52:10;;;;;;;39.67;21.80;;;;;;;;;;5073348;28;20495;-70
2022/01/15 01:54:36;;;;;;;39.57;21.07;;;;;;;;;;5071845;28;20220;-70
2022/01/15 01:57:02;;;;;;;43.00;21.50;;;;;;;;;;5073634;28;20438;-69
2022/01/15 01:59:30;;;;;;;41.33;22.43;;;;;;;;;;5073359;28;20200;-70
2022/01/15 02:01:56;;;;;;;39.50;20.30;;;;;;;;;;5071591;28;20456;-70
2022/01/15 02:04:23;;;;;;;41.47;20.93;;;;;;;;;;5073266;28;20484;-70
2022/01/15 02:06:49;;;;;;;39.47;20.77;;;;;;;;;;5073191;28;20959;-69
2022/01/15 02:09:16;;;;;;;36.90;20.30;;;;;;;;;;5071561;28;20437;-68
2022/01/15 02:11:43;;;;;;;34.43;19.67;;;;;;;;;;5073068;28;20497;-69
2022/01/15 02:14:09;;;;;;;36.70;20.23;;;;;;;;;;5073171;28;20489;-70
2022/01/15 02:16:36;;;;;;;37.60;20.53;;;;;;;;;;5070959;28;20442;-69
2022/01/15 02:19:02;;;;;;;35.27;19.37;;;;;;;;;;5073161;28;20211;-70
2022/01/15 02:24:14;;;;;;;38.60;21.47;;;;;;;;;;5072897;28;20429;-69
2022/01/15 02:26:40;;;;;;;40.70;20.40;;;;;;;;;;5072777;28;20476;-69
2022/01/15 02:29:07;;;;;;;34.97;20.07;;;;;;;;;;5072818;28;20603;-69
2022/01/15 02:31:33;;;;;;;42.00;21.97;;;;;;;;;;5072663;28;20928;-69
2022/01/15 02:34:02;;;;;;;49.97;21.20;;;;;;;;;;5072756;28;20469;-69
2022/01/15 02:36:30;;;;;;;48.17;23.37;;;;;;;;;;5072659;28;20492;-70
2022/01/15 02:38:56;;;;;;;52.80;25.53;;;;;;;;;;5072692;28;20434;-68
2022/01/15 02:41:27;;;;;;;54.30;25.03;;;;;;;;;;5072611;28;20485;-70
2022/01/15 02:43:53;;;;;;;50.63;22.43;;;;;;;;;;5072591;28;20448;-70
2022/01/15 02:48:55;;;;;;;45.27;23.07;;;;;;;;;;5072663;28;20437;-69
2022/01/15 02:51:22;;;;;;;45.60;23.97;;;;;;;;;;5072444;28;20457;-71
2022/01/15 02:53:54;;;;;;;51.23;24.03;;;;;;;;;;5072383;28;20877;-69
2022/01/15 02:56:21;;;;;;;50.50;23.93;;;;;;;;;;5072499;28;20529;-69
2022/01/15 02:58:47;;;;;;;41.00;22.20;;;;;;;;;;5072485;28;20441;-69
2022/01/15 03:01:13;;;;;;;46.77;23.03;;;;;;;;;;5072441;28;20438;-69
2022/01/15 03:03:39;;;;;;;45.23;24.00;;;;;;;;;;5072266;28;20703;-70
2022/01/15 03:06:09;;;;;;;46.07;23.27;;;;;;;;;;5072418;28;20283;-69
2022/01/15 03:08:35;;;;;;;49.00;23.10;;;;;;;;;;5072066;28;20227;-69
2022/01/15 03:11:02;;;;;;;44.83;22.03;;;;;;;;;;5072256;28;20480;-69
2022/01/15 03:13:29;;;;;;;52.50;25.37;;;;;;;;;;5072092;28;20227;-70
2022/01/15 03:15:55;;;;;;;53.60;24.97;;;;;;;;;;5072120;28;20196;-70
2022/01/15 03:18:22;;;;;;;48.33;24.13;;;;;;;;;;5072099;28;20921;-70
2022/01/15 03:20:48;;;;;;;50.30;22.90;;;;;;;;;;5072307;28;20199;-69
2022/01/15 03:23:14;;;;;;;51.63;23.70;;;;;;;;;;5071993;28;20936;-69
2022/01/15 03:25:40;;;;;;;46.23;23.20;;;;;;;;;;5070161;28;20506;-69
2022/01/15 03:28:07;;;;;;;45.70;24.07;;;;;;;;;;5071987;28;20277;-69
2022/01/15 03:30:33;;;;;;;43.70;22.77;;;;;;;;;;5072003;28;20216;-69
2022/01/15 03:32:59;;;;;;;45.70;23.17;;;;;;;;;;5071573;28;20440;-69
2022/01/15 03:35:25;;;;;;;48.97;23.27;;;;;;;;;;5071983;28;20191;-68
2022/01/15 03:37:51;;;;;;;45.57;23.43;;;;;;;;;;5071919;28;20476;-69
2022/01/15 03:40:17;;;;;;;45.53;24.83;;;;;;;;;;5072021;28;20469;-69
2022/01/15 03:42:44;;;;;;;55.17;23.10;;;;;;;;;;5071659;28;20226;-69
2022/01/15 03:45:12;;;;;;;47.00;22.37;;;;;;;;;;5071851;28;20444;-68
2022/01/15 03:47:38;;;;;;;48.50;23.13;;;;;;;;;;5071708;28;20891;-69
2022/01/15 03:50:05;;;;;;;45.20;21.23;;;;;;;;;;5072038;28;20299;-69
2022/01/15 03:52:31;;;;;;;49.60;23.37;;;;;;;;;;5071753;28;20453;-69
2022/01/15 03:54:57;;;;;;;52.37;24.10;;;;;;;;;;5071731;28;20515;-69
2022/01/15 03:57:23;;;;;;;54.90;25.00;;;;;;;;;;5071654;28;20195;-69
2022/01/15 03:59:49;;;;;;;53.13;24.43;;;;;;;;;;5071946;28;20199;-69
2022/01/15 04:02:16;;;;;;;53.80;23.53;;;;;;;;;;5071863;28;20437;-69
2022/01/15 04:04:42;;;;;;;54.33;23.97;;;;;;;;;;5071657;28;20544;-69
2022/01/15 04:07:08;;;;;;;47.43;24.20;;;;;;;;;;5071514;28;20564;-69
2022/01/15 04:09:34;;;;;;;57.77;25.67;;;;;;;;;;5071662;28;20621;-69
2022/01/15 04:12:00;;;;;;;55.53;26.00;;;;;;;;;;5071574;28;20508;-69
2022/01/15 04:14:26;;;;;;;58.30;25.13;;;;;;;;;;5071365;28;20192;-70
2022/01/15 04:16:52;;;;;;;50.97;24.00;;;;;;;;;;5071711;28;20499;-71
2022/01/15 04:19:20;;;;;;;50.37;24.33;;;;;;;;;;5071626;28;20213;-70
2022/01/15 04:21:46;;;;;;;41.40;22.00;;;;;;;;;;5071351;28;20438;-70
2022/01/15 04:24:12;;;;;;;52.97;23.97;;;;;;;;;;5071304;28;20541;-70
2022/01/15 04:26:38;;;;;;;49.40;23.30;;;;;;;;;;5071174;28;20200;-70
2022/01/15 04:29:06;;;;;;;50.70;25.77;;;;;;;;;;5071594;28;20215;-69
2022/01/15 04:31:46;;;;;;;55.27;26.40;;;;;;;;;;5071361;28;20200;-71
2022/01/15 04:34:12;;;;;;;56.23;25.33;;;;;;;;;;5071488;28;20436;-68
2022/01/15 04:36:39;;;;;;;52.43;25.67;;;;;;;;;;5071232;28;20458;-69
2022/01/15 04:39:05;;;;;;;55.13;25.60;;;;;;;;;;5071177;28;20437;-69
2022/01/15 04:41:31;;;;;;;56.53;25.37;;;;;;;;;;5071319;28;20799;-70
2022/01/15 04:43:57;;;;;;;61.87;26.83;;;;;;;;;;5072204;28;20257;-69
2022/01/15 04:46:23;;;;;;;62.37;27.07;;;;;;;;;;5074627;28;20882;-68
2022/01/15 04:48:49;;;;;;;60.67;25.87;;;;;;;;;;5074609;28;20319;-69
2022/01/15 04:51:15;;;;;;;59.73;26.83;;;;;;;;;;5074832;28;20226;-68
2022/01/15 04:53:43;;;;;;;71.90;27.53;;;;;;;;;;5074447;28;20640;-69
2022/01/15 04:56:08;;;;;;;51.13;25.27;;;;;;;;;;5074721;28;20208;-70
2022/01/15 04:58:34;;;;;;;57.67;24.93;;;;;;;;;;5072831;28;20537;-69
2022/01/15 05:01:01;;;;;;;49.63;24.40;;;;;;;;;;5073115;28;20204;-69
2022/01/15 05:03:27;;;;;;;54.87;25.37;;;;;;;;;;5074437;28;20286;-69
2022/01/15 05:05:53;;;;;;;49.77;25.20;;;;;;;;;;5074487;28;20275;-69
2022/01/15 05:08:18;;;;;;;53.03;24.50;;;;;;;;;;5074406;28;20701;-70
2022/01/15 05:10:47;;;;;;;59.20;27.23;;;;;;;;;;5074179;28;20249;-68
2022/01/15 05:13:14;;;;;;;77.20;27.43;;;;;;;;;;5074032;28;20728;-69
2022/01/15 05:15:42;;;;;;;81.83;26.93;;;;;;;;;;5074181;28;20842;-69
2022/01/15 05:18:08;;;;;;;58.07;27.20;;;;;;;;;;5074336;28;20422;-69
2022/01/15 05:20:36;;;;;;;57.40;27.00;;;;;;;;;;5074185;28;20426;-69
2022/01/15 05:23:02;;;;;;;64.87;26.07;;;;;;;;;;5074157;28;20434;-69
2022/01/15 05:25:28;;;;;;;73.40;27.80;;;;;;;;;;5074153;28;20441;-69
2022/01/15 05:27:55;;;;;;;64.23;27.30;;;;;;;;;;5073771;28;20517;-68
2022/01/15 05:30:21;;;;;;;77.13;30.77;;;;;;;;;;5074014;28;20464;-69
2022/01/15 05:32:47;;;;;;;60.30;28.77;;;;;;;;;;5073504;28;20446;-68
2022/01/15 05:35:13;;;;;;;56.30;27.60;;;;;;;;;;5073958;28;20725;-68
2022/01/15 05:37:39;;;;;;;62.90;28.77;;;;;;;;;;5073649;28;20195;-69
2022/01/15 05:40:06;;;;;;;70.57;28.37;;;;;;;;;;5073832;28;20436;-69
2022/01/15 05:42:32;;;;;;;55.80;26.73;;;;;;;;;;5073548;28;20446;-68
2022/01/15 05:44:59;;;;;;;60.03;28.83;;;;;;;;;;5073603;28;20491;-68
2022/01/15 05:47:25;;;;;;;57.37;28.43;;;;;;;;;;5073358;28;20772;-68
2022/01/15 05:49:51;;;;;;;48.33;24.83;;;;;;;;;;5073430;28;20537;-68
2022/01/15 05:52:17;;;;;;;81.40;30.43;;;;;;;;;;5073400;28;20231;-68
2022/01/15 05:54:43;;;;;;;62.80;29.47;;;;;;;;;;5072929;28;20214;-69
2022/01/15 05:57:09;;;;;;;60.07;28.57;;;;;;;;;;5073500;28;20434;-69
2022/01/15 05:59:35;;;;;;;58.30;28.80;;;;;;;;;;5073363;28;20436;-68
2022/01/15 06:02:02;;;;;;;64.73;29.20;;;;;;;;;;5073502;28;20198;-68
2022/01/15 06:04:28;;;;;;;63.97;29.03;;;;;;;;;;5073157;28;20999;-69
2022/01/15 06:06:54;;;;;;;67.60;29.63;;;;;;;;;;5072898;28;20530;-68
2022/01/15 06:09:20;;;;;;;65.27;29.17;;;;;;;;;;5073049;28;20544;-68
2022/01/15 06:11:46;;;;;;;58.03;27.47;;;;;;;;;;5072986;28;20240;-68
2022/01/15 06:14:12;;;;;;;54.00;26.00;;;;;;;;;;5073090;28;20203;-69
2022/01/15 06:16:38;;;;;;;51.80;26.27;;;;;;;;;;5072928;28;20436;-68
2022/01/15 06:19:06;;;;;;;56.83;26.90;;;;;;;;;;5072952;28;20457;-68
2022/01/15 06:21:32;;;;;;;53.83;25.43;;;;;;;;;;5072921;28;20689;-68
2022/01/15 06:23:58;;;;;;;58.73;25.97;;;;;;;;;;5072693;28;20422;-68
2022/01/15 06:26:24;;;;;;;57.80;25.90;;;;;;;;;;5073058;28;20395;-68
2022/01/15 06:28:50;;;;;;;46.20;24.00;;;;;;;;;;5072798;28;20545;-69
2022/01/15 06:31:16;;;;;;;67.00;26.23;;;;;;;;;;5072911;28;20688;-69
2022/01/15 06:33:42;;;;;;;50.67;24.83;;;;;;;;;;5072682;28;20433;-69
2022/01/15 06:36:09;;;;;;;53.17;25.40;;;;;;;;;;5072754;28;20438;-69
2022/01/15 06:38:35;;;;;;;65.07;25.17;;;;;;;;;;5072481;28;20195;-69
2022/01/15 06:41:01;;;;;;;49.70;25.60;;;;;;;;;;5072620;28;20429;-68
2022/01/15 06:43:27;;;;;;;48.73;26.43;;;;;;;;;;5072372;28;20249;-68
2022/01/15 06:45:53;;;;;;;56.53;27.97;;;;;;;;;;5072185;28;20191;-68
2022/01/15 06:48:19;;;;;;;57.73;26.90;;;;;;;;;;5072442;28;20539;-68
2022/01/15 06:50:45;;;;;;;56.00;26.17;;;;;;;;;;5072314;28;20202;-67
2022/01/15 06:53:13;;;;;;;63.57;25.97;;;;;;;;;;5072230;28;20939;-68
2022/01/15 06:55:39;;;;;;;59.27;27.63;;;;;;;;;;5072260;28;20508;-69
2022/01/15 06:58:05;;;;;;;50.23;26.63;;;;;;;;;;5072253;28;20433;-69
2022/01/15 07:00:31;;;;;;;56.33;27.83;;;;;;;;;;5072330;28;20911;-69
2022/01/15 07:03:00;;;;;;;57.30;27.47;;;;;;;;;;5072259;28;20196;-69
2022/01/15 07:05:26;;;;;;;50.13;24.80;;;;;;;;;;5072118;28;20203;-69
2022/01/15 07:07:52;;;;;;;74.07;36.57;;;;;;;;;;5071353;28;20521;-69
2022/01/15 07:10:20;;;;;;;55.63;29.17;;;;;;;;;;5072192;28;20508;-69
2022/01/15 07:12:46;;;;;;;50.80;27.00;;;;;;;;;;5071983;28;20235;-69
2022/01/15 07:15:12;;;;;;;45.43;25.50;;;;;;;;;;5072017;28;20440;-69
2022/01/15 07:17:42;;;;;;;49.90;25.20;;;;;;;;;;5071952;28;20726;-69
2022/01/15 07:20:08;;;;;;;48.60;26.33;;;;;;;;;;5072043;28;20426;-68
2022/01/15 07:22:34;;;;;;;50.27;26.07;;;;;;;;;;5072106;28;21011;-68
2022/01/15 07:25:00;;;;;;;49.53;25.73;;;;;;;;;;5071903;28;20433;-68
2022/01/15 07:27:27;;;;;;;51.57;26.10;;;;;;;;;;5071942;28;20658;-68
2022/01/15 07:29:54;;;;;;;50.33;25.30;;;;;;;;;;5071710;28;20256;-69
2022/01/15 07:32:20;;;;;;;53.17;26.37;;;;;;;;;;5071737;28;20476;-68
2022/01/15 07:34:46;;;;;;;47.20;25.07;;;;;;;;;;5071800;28;20940;-69
2022/01/15 07:37:12;;;;;;;52.93;25.20;;;;;;;;;;5071592;28;20200;-68
2022/01/15 07:39:38;;;;;;;51.27;25.60;;;;;;;;;;5071913;28;20195;-68
2022/01/15 07:42:05;;;;;;;50.40;25.60;;;;;;;;;;5071941;28;20964;-68
2022/01/15 07:44:32;;;;;;;45.90;24.63;;;;;;;;;;5071657;28;20195;-68
2022/01/15 07:46:58;;;;;;;42.20;24.43;;;;;;;;;;5071575;28;20449;-69
2022/01/15 07:49:24;;;;;;;41.43;24.20;;;;;;;;;;5071745;28;20824;-68
2022/01/15 07:51:50;;;;;;;37.20;21.23;;;;;;;;;;5071403;28;20253;-69
2022/01/15 07:54:16;;;;;;;40.67;23.40;;;;;;;;;;5070151;28;20217;-69
2022/01/15 07:56:42;;;;;;;39.63;23.13;;;;;;;;;;5072267;28;20662;-68
2022/01/15 07:59:08;;;;;;;38.37;21.60;;;;;;;;;;5071633;28;20661;-69
2022/01/15 08:01:36;;;;;;;38.57;22.87;;;;;;;;;;5071766;28;20438;-69
2022/01/15 08:04:02;;;;;;;40.10;22.40;;;;;;;;;;5071740;28;20200;-68
2022/01/15 08:06:28;;;;;;;41.90;22.03;;;;;;;;;;5071626;28;20524;-69
2022/01/15 08:08:54;;;;;;;38.50;21.33;;;;;;;;;;5071467;28;20568;-69
2022/01/15 08:11:20;;;;;;;37.70;21.53;;;;;;;;;;5071540;28;20253;-68
2022/01/15 08:13:46;;;;;;;35.57;20.10;;;;;;;;;;5071539;28;20220;-69
2022/01/15 08:16:12;;;;;;;36.87;20.40;;;;;;;;;;5071161;28;20230;-68
2022/01/15 08:18:39;;;;;;;36.73;21.33;;;;;;;;;;5073548;28;20440;-68
2022/01/15 08:21:06;;;;;;;38.53;22.30;;;;;;;;;;5075301;28;20809;-68
2022/01/15 08:23:32;;;;;;;39.17;22.63;;;;;;;;;;5075426;28;20446;-68
2022/01/15 08:25:59;;;;;;;35.30;21.20;;;;;;;;;;5075090;28;20448;-68
2022/01/15 08:28:25;;;;;;;39.67;21.37;;;;;;;;;;5075010;28;21178;-68
2022/01/15 08:30:51;;;;;;;38.73;22.17;;;;;;;;;;5074990;28;21002;-68
2022/01/15 08:33:17;;;;;;;40.87;22.67;;;;;;;;;;5075018;28;20480;-68
2022/01/15 08:35:44;;;;;;;37.63;21.33;;;;;;;;;;5074913;28;20437;-68
2022/01/15 08:38:10;;;;;;;41.00;22.37;;;;;;;;;;5074624;28;20441;-68
2022/01/15 08:40:36;;;;;;;38.00;22.00;;;;;;;;;;5074771;28;20448;-68
2022/01/15 08:43:03;;;;;;;42.03;22.97;;;;;;;;;;5074772;28;20739;-68
2022/01/15 08:45:29;;;;;;;40.67;22.87;;;;;;;;;;5074909;28;20447;-68
2022/01/15 08:47:56;;;;;;;36.33;21.87;;;;;;;;;;5074662;28;20476;-68
2022/01/15 08:50:22;;;;;;;38.73;21.90;;;;;;;;;;5074849;28;20436;-68
2022/01/15 08:52:50;;;;;;;37.63;22.30;;;;;;;;;;5074672;28;20987;-68
2022/01/15 08:55:17;;;;;;;34.97;20.73;;;;;;;;;;5074820;28;20430;-68
2022/01/15 08:57:44;;;;;;;35.10;20.70;;;;;;;;;;5074622;28;20525;-68
2022/01/15 09:00:12;;;;;;;37.67;22.53;;;;;;;;;;5074534;28;20430;-69
2022/01/15 09:02:38;;;;;;;35.53;21.17;;;;;;;;;;5074603;28;20438;-69
2022/01/15 09:05:05;;;;;;;35.50;22.40;;;;;;;;;;5074351;28;20444;-70
2022/01/15 09:07:31;;;;;;;36.20;21.53;;;;;;;;;;5074479;28;20477;-66
2022/01/15 09:09:58;;;;;;;33.93;20.57;;;;;;;;;;5074397;28;20437;-68
2022/01/15 09:12:24;;;;;;;32.57;20.00;;;;;;;;;;5074266;28;20258;-69
2022/01/15 09:14:58;;;;;;;30.87;19.80;;;;;;;;;;5074330;28;20514;-69
2022/01/15 09:17:24;;;;;;;32.87;21.20;;;;;;;;;;5074307;28;20521;-69
2022/01/15 09:19:50;;;;;;;31.17;19.70;;;;;;;;;;5074053;28;20480;-69
2022/01/15 09:22:16;;;;;;;31.67;20.20;;;;;;;;;;5074181;28;20445;-69
2022/01/15 09:24:45;;;;;;;31.63;19.23;;;;;;;;;;5074166;28;20200;-69
2022/01/15 09:30:13;;;;;;;28.93;19.20;;;;;;;;;;5073191;28;20892;-69
2022/01/15 09:32:39;;;;;;;33.23;20.20;;;;;;;;;;5073915;28;20437;-69
2022/01/15 09:35:05;;;;;;;33.40;19.13;;;;;;;;;;5073816;28;20452;-70
2022/01/15 09:37:31;;;;;;;32.73;20.37;;;;;;;;;;5073839;28;20434;-69
2022/01/15 09:39:58;;;;;;;34.67;21.07;;;;;;;;;;5073618;28;20485;-69
2022/01/15 09:42:25;;;;;;;36.00;20.83;;;;;;;;;;5073936;28;20434;-69
2022/01/15 09:44:52;;;;;;;28.97;19.47;;;;;;;;;;5073408;28;20442;-69
2022/01/15 09:47:20;;;;;;;32.30;19.53;;;;;;;;;;5073464;28;20920;-69
2022/01/15 09:49:46;;;;;;;31.70;20.90;;;;;;;;;;5073602;28;20488;-69
2022/01/15 09:52:12;;;;;;;27.13;18.40;;;;;;;;;;5073681;28;20214;-69
2022/01/15 09:54:39;;;;;;;31.93;18.83;;;;;;;;;;5073509;28;20476;-71
2022/01/15 09:57:05;;;;;;;30.27;18.77;;;;;;;;;;5073294;28;20445;-61
2022/01/15 09:59:33;;;;;;;33.70;18.87;;;;;;;;;;5073410;28;20817;-61
2022/01/15 10:02:02;;;;;;;28.27;18.23;;;;;;;;;;5073284;28;20458;-61
2022/01/15 10:04:31;;;;;;;27.63;17.93;;;;;;;;;;5073324;28;20207;-71
2022/01/15 10:07:07;;;;;;;27.77;17.40;;;;;;;;;;5072937;28;20448;-68
2022/01/15 10:09:33;;;;;;;30.23;18.40;;;;;;;;;;5073357;28;20529;-74
2022/01/15 10:11:59;;;;;;;28.50;17.63;;;;;;;;;;5072996;28;20505;-70
2022/01/15 10:14:26;;;;;;;28.73;18.07;;;;;;;;;;5073210;28;20798;-66
2022/01/15 10:16:55;;;;;;;26.97;18.23;;;;;;;;;;5072681;28;20920;-70
2022/01/15 10:19:25;;;;;;;29.87;19.40;;;;;;;;;;5073121;28;20221;-67
2022/01/15 10:22:04;;;;;;;29.23;18.80;;;;;;;;;;5072803;28;20460;-68
2022/01/15 10:24:30;;;;;;;29.47;18.57;;;;;;;;;;5073031;28;20275;-73
2022/01/15 10:26:56;;;;;;;28.50;17.00;;;;;;;;;;5072577;28;20192;-66
2022/01/15 10:29:22;;;;;;;26.50;18.00;;;;;;;;;;5072765;28;20272;-70
2022/01/15 10:31:48;;;;;;;27.77;18.13;;;;;;;;;;5072627;28;20426;-76
2022/01/15 10:34:26;;;;;;;30.13;18.00;;;;;;;;;;5072888;28;20196;-70
2022/01/15 10:36:52;;;;;;;25.53;16.93;;;;;;;;;;5072354;28;20207;-68
2022/01/15 10:39:20;;;;;;;28.07;17.30;;;;;;;;;;5072604;28;20434;-70
2022/01/15 10:41:46;;;;;;;28.60;16.87;;;;;;;;;;5071530;28;20199;-70
2022/01/15 10:44:29;;;;;;;25.17;15.47;;;;;;;;;;5072222;28;20436;-69
2022/01/15 10:47:00;;;;;;;23.60;15.53;;;;;;;;;;5072367;28;20434;-70
2022/01/15 10:49:28;;;;;;;24.80;17.23;;;;;;;;;;5071899;28;20216;-70
2022/01/15 10:52:10;;;;;;;30.07;17.73;;;;;;;;;;5071728;28;20659;-69
2022/01/15 10:54:48;;;;;;;24.83;16.83;;;;;;;;;;5072046;28;20357;-69
2022/01/15 10:57:14;;;;;;;26.70;17.50;;;;;;;;;;5071887;28;20979;-71
2022/01/15 10:59:54;;;;;;;23.07;15.17;;;;;;;;;;5072031;28;20231;-70
2022/01/15 11:02:21;;;;;;;27.90;15.67;;;;;;;;;;5071993;28;20195;-69
2022/01/15 11:04:48;;;;;;;23.53;15.63;;;;;;;;;;5071980;28;20740;-70
2022/01/15 11:07:15;;;;;;;22.70;15.70;;;;;;;;;;5071801;28;20345;-69
2022/01/15 11:09:43;;;;;;;25.53;16.70;;;;;;;;;;5071846;28;20199;-70
2022/01/15 11:12:09;;;;;;;23.20;15.70;;;;;;;;;;5071463;28;20235;-69
2022/01/15 11:14:35;;;;;;;22.40;14.43;;;;;;;;;;5071764;28;20203;-70
2022/01/15 11:17:01;;;;;;;25.40;15.60;;;;;;;;;;5071639;28;21008;-70
2022/01/15 11:19:30;;;;;;;25.27;15.73;;;;;;;;;;5071789;28;20458;-70
2022/01/15 11:21:57;;;;;;;22.87;13.97;;;;;;;;;;5071835;28;20694;-70
2022/01/15 11:24:24;;;;;;;20.77;13.77;;;;;;;;;;5072007;28;20541;-70
2022/01/15 11:26:58;;;;;;;20.83;13.50;;;;;;;;;;5071809;28;20274;-70
2022/01/15 11:29:25;;;;;;;21.23;13.53;;;;;;;;;;5071509;28;21008;-70
2022/01/15 11:31:53;;;;;;;20.50;13.67;;;;;;;;;;5071518;28;20854;-70
2022/01/15 11:34:19;;;;;;;19.77;13.30;;;;;;;;;;5071565;28;20222;-70
2022/01/15 11:36:46;;;;;;;20.63;14.00;;;;;;;;;;5071518;28;20207;-70
2022/01/15 11:39:15;;;;;;;18.97;13.20;;;;;;;;;;5071352;28;20273;-69
2022/01/15 11:41:41;;;;;;;18.00;12.03;;;;;;;;;;5071813;28;20223;-69
2022/01/15 11:44:09;;;;;;;18.93;12.33;;;;;;;;;;5071363;28;20202;-70
2022/01/15 11:46:40;;;;;;;23.07;14.40;;;;;;;;;;5071487;28;20200;-69
2022/01/15 11:49:25;;;;;;;19.67;13.13;;;;;;;;;;5071578;28;20307;-69
2022/01/15 11:51:51;;;;;;;14.73;10.93;;;;;;;;;;5071579;28;20660;-69
2022/01/15 11:54:19;;;;;;;15.40;10.53;;;;;;;;;;5074810;28;20284;-69
2022/01/15 11:56:47;;;;;;;19.20;11.33;;;;;;;;;;5075781;28;20443;-70
2022/01/15 11:59:31;;;;;;;14.50;11.73;;;;;;;;;;5075680;28;20414;-69
2022/01/15 12:01:59;;;;;;;17.07;11.47;;;;;;;;;;5075372;28;20190;-69
2022/01/15 12:04:28;;;;;;;15.93;11.30;;;;;;;;;;5075710;28;20203;-69
2022/01/15 12:07:12;;;;;;;18.20;11.47;;;;;;;;;;5075460;28;20195;-68
2022/01/15 12:09:40;;;;;;;14.17;10.60;;;;;;;;;;5065334;28;20269;-69
2022/01/15 12:12:29;;;;;;;17.83;12.03;;;;;;;;;;5075237;28;20227;-69
2022/01/15 12:14:58;;;;;;;16.00;11.20;;;;;;;;;;5075538;28;20282;-69
2022/01/15 12:17:25;;;;;;;16.20;10.50;;;;;;;;;;5075394;28;20199;-68
2022/01/15 12:19:52;;;;;;;15.17;9.90;;;;;;;;;;5075059;28;20196;-68
2022/01/15 12:22:33;;;;;;;16.23;10.30;;;;;;;;;;5075312;28;20204;-68
2022/01/15 12:25:01;;;;;;;14.07;9.40;;;;;;;;;;5075310;28;20196;-69
2022/01/15 12:27:28;;;;;;;13.17;10.00;;;;;;;;;;5073550;28;20204;-69
2022/01/15 12:29:59;;;;;;;16.93;10.43;;;;;;;;;;5073545;28;20211;-69
2022/01/15 12:32:29;;;;;;;15.63;10.47;;;;;;;;;;5075203;28;20267;-68
2022/01/15 12:34:56;;;;;;;16.77;9.83;;;;;;;;;;5075030;28;20199;-69
2022/01/15 12:37:22;;;;;;;14.60;9.67;;;;;;;;;;5075027;28;20253;-69
2022/01/15 12:39:49;;;;;;;15.03;10.47;;;;;;;;;;5075098;28;20200;-69
2022/01/15 12:42:17;;;;;;;13.70;9.40;;;;;;;;;;5074887;28;20227;-68
2022/01/15 12:44:44;;;;;;;13.27;8.73;;;;;;;;;;5075026;28;20206;-68
2022/01/15 12:47:10;;;;;;;12.83;8.80;;;;;;;;;;5074705;28;20196;-68
2022/01/15 12:49:40;;;;;;;9.27;5.70;;;;;;;;;;5074712;28;20588;-69
2022/01/15 12:52:10;;;;;;;5.70;4.37;;;;;;;;;;5074830;28;20206;-68
2022/01/15 12:54:36;;;;;;;5.83;4.33;;;;;;;;;;5074651;28;20211;-69
2022/01/15 12:57:02;;;;;;;11.80;5.27;;;;;;;;;;5074872;28;20566;-69
2022/01/15 12:59:30;;;;;;;9.00;5.33;;;;;;;;;;5074740;28;20225;-69
2022/01/15 13:01:56;;;;;;;9.27;6.03;;;;;;;;;;5074714;28;20205;-69
2022/01/15 13:04:22;;;;;;;7.63;5.80;;;;;;;;;;5073498;28;20282;-69
2022/01/15 13:06:51;;;;;;;8.47;6.20;;;;;;;;;;5074580;28;20210;-68
2022/01/15 13:09:17;;;;;;;10.20;7.37;;;;;;;;;;5074409;28;20220;-68
2022/01/15 13:11:48;;;;;;;9.40;7.50;;;;;;;;;;5074385;28;20326;-68
2022/01/15 13:14:15;;;;;;;9.33;6.77;;;;;;;;;;5074260;28;20597;-68
2022/01/15 13:16:42;;;;;;;10.03;7.20;;;;;;;;;;5074530;28;20229;-68
2022/01/15 13:19:08;;;;;;;9.00;7.00;;;;;;;;;;5074352;28;20210;-67
2022/01/15 13:21:35;;;;;;;9.13;6.60;;;;;;;;;;5074280;28;20200;-68
2022/01/15 13:24:03;;;;;;;8.80;7.40;;;;;;;;;;5074160;28;20559;-69
2022/01/15 13:26:32;;;;;;;9.83;6.80;;;;;;;;;;5074197;28;20203;-69
2022/01/15 13:28:59;;;;;;;12.07;7.83;;;;;;;;;;5074088;28;20219;-69
2022/01/15 13:31:26;;;;;;;9.20;7.60;;;;;;;;;;5073981;28;20196;-68
2022/01/15 13:33:54;;;;;;;11.93;8.07;;;;;;;;;;5074009;28;20243;-68
2022/01/15 13:36:20;;;;;;;9.53;7.67;;;;;;;;;;5074054;28;20206;-69
2022/01/15 13:38:49;;;;;;;11.60;7.80;;;;;;;;;;5074039;28;20187;-68
2022/01/15 13:41:16;;;;;;;11.77;8.33;;;;;;;;;;5074760;28;20650;-68
2022/01/15 13:43:44;;;;;;;11.50;8.73;;;;;;;;;;5074302;28;20191;-69
2022/01/15 13:46:10;;;;;;;9.50;8.17;;;;;;;;;;5073664;28;20207;-68
2022/01/15 13:48:37;;;;;;;9.17;7.77;;;;;;;;;;5073654;28;20232;-68
2022/01/15 13:53:57;;;;;;;12.07;8.70;;;;;;;;;;5073617;28;20223;-69
2022/01/15 13:56:25;;;;;;;11.43;8.13;;;;;;;;;;5073426;28;20203;-69
2022/01/15 13:58:55;;;;;;;12.30;7.50;;;;;;;;;;5073443;28;20192;-68
2022/01/15 14:01:23;;;;;;;9.60;7.60;;;;;;;;;;5073063;28;20200;-68
2022/01/15 14:03:49;;;;;;;11.60;7.80;;;;;;;;;;5073260;28;20237;-68
2022/01/15 14:06:17;;;;;;;9.53;7.77;;;;;;;;;;5073250;28;20203;-65
2022/01/15 14:08:43;;;;;;;9.40;7.60;;;;;;;;;;5073245;28;20234;-65
2022/01/15 14:11:10;;;;;;;11.40;7.73;;;;;;;;;;5073104;28;20461;-64
2022/01/15 14:13:36;;;;;;;8.53;6.70;;;;;;;;;;5073374;28;20199;-65
2022/01/15 14:16:18;;;;;;;7.70;6.80;;;;;;;;;;5072886;28;20786;-65
2022/01/15 14:18:46;;;;;;;8.90;7.17;;;;;;;;;;5073220;28;20274;-66
2022/01/15 14:21:39;;;;;;;8.47;6.87;;;;;;;;;;5071711;28;20529;-66
2022/01/15 14:24:14;;;;;;;10.13;8.57;;;;;;;;;;5072930;28;20253;-64
2022/01/15 14:26:45;;;;;;;11.30;8.17;;;;;;;;;;5072954;28;20287;-64
2022/01/15 14:29:12;;;;;;;8.93;7.70;;;;;;;;;;5073015;28;20469;-65
2022/01/15 14:31:38;;;;;;;9.43;8.23;;;;;;;;;;5072942;28;20208;-66
2022/01/15 14:34:08;;;;;;;9.27;8.13;;;;;;;;;;5072816;28;20206;-65
2022/01/15 14:36:36;;;;;;;9.83;8.37;;;;;;;;;;5072819;28;20730;-65
2022/01/15 14:39:04;;;;;;;9.40;8.40;;;;;;;;;;5072573;28;20198;-65
2022/01/15 14:41:30;;;;;;;12.10;8.63;;;;;;;;;;5072463;28;20200;-66
2022/01/15 14:43:56;;;;;;;12.00;9.13;;;;;;;;;;5072723;28;20524;-65
2022/01/15 14:46:22;;;;;;;10.50;8.50;;;;;;;;;;5072448;28;20791;-64
2022/01/15 14:48:48;;;;;;;9.83;8.50;;;;;;;;;;5072681;28;20481;-64
2022/01/15 14:51:16;;;;;;;10.63;8.87;;;;;;;;;;5072392;28;20203;-64
2022/01/15 14:53:44;;;;;;;11.10;8.63;;;;;;;;;;5070560;28;20781;-64
2022/01/15 14:56:10;;;;;;;11.33;9.13;;;;;;;;;;5072162;28;20200;-64